Time;durP1;ratioP1;P1;durP2;ratioP2;P2;SDS_P1;SDS_P2;PMS_P1;PMS_P2;Temp;Humidity;BMP_temperature;BMP_pressure;BME280_temperature;BME280_humidity;BME280_pressure;Samples;Min_cycle;Max_cycle;Signal;HPM_P1;HPM_P2
2022/09/09 00:01:36;;;;;;;10.80;4.05;;;;;;;;;;5114619;28;20305;-49
2022/09/09 00:04:12;;;;;;;5.65;3.38;;;;;;;;;;5114992;28;20202;-51
2022/09/09 00:06:53;;;;;;;10.20;4.10;;;;;;;;;;5114979;28;20194;-49
2022/09/09 00:09:22;;;;;;;15.52;4.80;;;;;;;;;;5114034;28;20242;-49
2022/09/09 00:11:56;;;;;;;6.57;4.30;;;;;;;;;;5114096;28;20226;-48
2022/09/09 00:14:39;;;;;;;8.90;4.30;;;;;;;;;;5113940;28;20186;-49
2022/09/09 00:17:33;;;;;;;9.48;4.03;;;;;;;;;;5114801;28;20202;-57
2022/09/09 00:20:41;;;;;;;11.90;4.25;;;;;;;;;;5114181;28;20183;-49
2022/09/09 00:23:15;;;;;;;8.80;4.22;;;;;;;;;;5112999;28;20214;-48
2022/09/09 00:26:11;;;;;;;8.60;4.60;;;;;;;;;;5114264;28;20197;-49
2022/09/09 00:28:44;;;;;;;6.60;3.88;;;;;;;;;;5131298;28;20245;-49
2022/09/09 00:31:18;;;;;;;9.88;4.45;;;;;;;;;;5114144;28;20561;-50
2022/09/09 00:33:46;;;;;;;8.55;4.43;;;;;;;;;;5097239;28;20205;-54
2022/09/09 00:36:15;;;;;;;7.93;3.70;;;;;;;;;;5114978;28;20206;-50
2022/09/09 00:38:46;;;;;;;12.00;5.13;;;;;;;;;;5134720;27;20214;-49
2022/09/09 00:41:28;;;;;;;9.57;3.95;;;;;;;;;;5118586;28;20272;-50
2022/09/09 00:44:25;;;;;;;6.47;3.72;;;;;;;;;;5117243;28;20263;-50
2022/09/09 00:47:25;;;;;;;8.10;3.90;;;;;;;;;;5100466;28;20202;-49
2022/09/09 00:50:17;;;;;;;8.32;3.70;;;;;;;;;;5134503;27;20202;-50
2022/09/09 00:53:26;;;;;;;7.63;4.00;;;;;;;;;;5115583;28;20229;-57
2022/09/09 00:56:21;;;;;;;11.82;4.13;;;;;;;;;;5117481;28;20190;-49
2022/09/09 00:59:24;;;;;;;10.68;4.50;;;;;;;;;;5117508;28;20202;-49
2022/09/09 01:01:55;;;;;;;10.32;4.60;;;;;;;;;;5109346;28;20213;-53
2022/09/09 01:04:30;;;;;;;10.45;4.88;;;;;;;;;;5117864;28;20627;-49
2022/09/09 01:07:11;;;;;;;9.30;4.95;;;;;;;;;;5117389;28;20584;-49
2022/09/09 01:09:48;;;;;;;13.25;5.70;;;;;;;;;;5100014;28;20190;-53
2022/09/09 01:12:24;;;;;;;10.38;6.07;;;;;;;;;;5100359;28;20233;-49
2022/09/09 01:15:03;;;;;;;10.82;5.90;;;;;;;;;;5117621;28;20209;-51
2022/09/09 01:17:34;;;;;;;13.73;6.53;;;;;;;;;;5116639;28;20209;-52
2022/09/09 01:20:30;;;;;;;14.10;7.13;;;;;;;;;;5101274;28;20263;-48
2022/09/09 01:23:26;;;;;;;11.20;5.95;;;;;;;;;;5100666;28;20210;-49
2022/09/09 01:26:30;;;;;;;13.57;6.30;;;;;;;;;;5133734;27;20209;-48
2022/09/09 01:29:01;;;;;;;13.85;6.65;;;;;;;;;;5100146;28;20197;-51
2022/09/09 01:31:41;;;;;;;11.10;6.20;;;;;;;;;;5116327;28;20666;-50
2022/09/09 01:34:11;;;;;;;12.05;6.68;;;;;;;;;;5116606;28;20201;-56
2022/09/09 01:36:46;;;;;;;11.18;6.47;;;;;;;;;;5116068;28;20210;-49
2022/09/09 01:39:13;;;;;;;11.15;6.43;;;;;;;;;;5116991;28;20175;-56
2022/09/09 01:41:41;;;;;;;12.13;6.60;;;;;;;;;;5133166;27;20206;-49
2022/09/09 01:44:11;;;;;;;11.85;6.75;;;;;;;;;;5099876;28;20202;-50
2022/09/09 01:46:40;;;;;;;14.65;7.30;;;;;;;;;;5133451;27;20514;-49
2022/09/09 01:49:14;;;;;;;13.90;7.82;;;;;;;;;;5109530;28;20799;-49
2022/09/09 01:51:42;;;;;;;13.43;7.63;;;;;;;;;;5116325;28;20264;-49
2022/09/09 01:54:12;;;;;;;17.48;7.85;;;;;;;;;;5133090;27;20194;-53
2022/09/09 01:56:46;;;;;;;17.80;8.70;;;;;;;;;;5116100;28;20202;-50
2022/09/09 01:59:47;;;;;;;19.67;9.55;;;;;;;;;;5133084;27;20193;-48
2022/09/09 02:02:22;;;;;;;18.45;9.65;;;;;;;;;;5115695;28;20711;-53
2022/09/09 02:05:06;;;;;;;18.63;10.27;;;;;;;;;;5101278;28;20277;-48
2022/09/09 02:07:43;;;;;;;22.42;11.07;;;;;;;;;;5116749;28;20209;-49
2022/09/09 02:10:45;;;;;;;23.30;11.25;;;;;;;;;;5115576;28;20198;-48
2022/09/09 02:13:29;;;;;;;22.23;11.85;;;;;;;;;;5114033;28;20222;-48
2022/09/09 02:16:02;;;;;;;22.58;11.88;;;;;;;;;;5115271;28;20291;-55
2022/09/09 02:18:56;;;;;;;23.92;11.93;;;;;;;;;;5098856;28;20205;-49
2022/09/09 02:21:34;;;;;;;24.05;12.10;;;;;;;;;;5100328;28;20542;-50
2022/09/09 02:24:04;;;;;;;22.95;13.15;;;;;;;;;;5115320;28;20631;-50
2022/09/09 02:26:42;;;;;;;24.25;12.13;;;;;;;;;;5099116;28;20201;-49
2022/09/09 02:29:14;;;;;;;25.52;13.98;;;;;;;;;;5115284;28;20524;-53
2022/09/09 02:31:44;;;;;;;22.90;12.90;;;;;;;;;;5098465;28;20690;-48
2022/09/09 02:34:18;;;;;;;25.83;13.50;;;;;;;;;;5099123;28;20220;-49
2022/09/09 02:36:46;;;;;;;23.58;12.50;;;;;;;;;;5115292;28;20687;-52
2022/09/09 02:39:13;;;;;;;23.88;12.65;;;;;;;;;;5098484;28;20240;-49
2022/09/09 02:41:41;;;;;;;23.65;13.30;;;;;;;;;;5115277;28;20267;-51
2022/09/09 02:44:13;;;;;;;26.70;13.18;;;;;;;;;;5113391;28;20506;-55
2022/09/09 02:46:51;;;;;;;27.35;13.05;;;;;;;;;;5113392;28;20213;-53
2022/09/09 02:49:28;;;;;;;26.38;12.68;;;;;;;;;;5114105;28;20274;-49
2022/09/09 02:52:06;;;;;;;24.63;13.50;;;;;;;;;;5098412;28;20214;-51
2022/09/09 02:54:38;;;;;;;26.60;13.60;;;;;;;;;;5098602;28;20209;-54
2022/09/09 02:57:21;;;;;;;25.25;13.55;;;;;;;;;;5115218;28;20289;-48
2022/09/09 02:59:50;;;;;;;23.55;13.45;;;;;;;;;;5098016;28;20190;-49
2022/09/09 03:02:18;;;;;;;24.75;14.48;;;;;;;;;;5114944;28;20233;-49
2022/09/09 03:04:51;;;;;;;23.83;13.05;;;;;;;;;;5114950;28;20202;-48
2022/09/09 03:07:19;;;;;;;25.20;14.77;;;;;;;;;;5114978;28;20292;-48
2022/09/09 03:09:48;;;;;;;28.58;14.13;;;;;;;;;;5114854;28;20202;-48
2022/09/09 03:12:16;;;;;;;25.90;13.82;;;;;;;;;;5114526;28;20679;-50
2022/09/09 03:14:45;;;;;;;28.52;14.35;;;;;;;;;;5114486;28;20205;-50
2022/09/09 03:17:12;;;;;;;25.50;14.32;;;;;;;;;;5114715;28;20288;-49
2022/09/09 03:19:47;;;;;;;23.05;13.85;;;;;;;;;;5114798;28;20194;-50
2022/09/09 03:22:14;;;;;;;23.40;14.02;;;;;;;;;;5114691;28;20202;-49
2022/09/09 03:24:43;;;;;;;25.08;14.02;;;;;;;;;;5114439;28;20644;-50
2022/09/09 03:27:10;;;;;;;29.67;14.70;;;;;;;;;;5115121;28;20217;-54
2022/09/09 03:29:38;;;;;;;24.83;13.93;;;;;;;;;;5114330;28;20236;-49
2022/09/09 03:32:10;;;;;;;24.27;14.32;;;;;;;;;;5114182;28;20221;-53
2022/09/09 03:34:40;;;;;;;25.48;14.63;;;;;;;;;;5107263;28;20315;-53
2022/09/09 03:37:10;;;;;;;24.83;14.05;;;;;;;;;;5113821;28;20201;-52
2022/09/09 03:39:38;;;;;;;26.08;14.38;;;;;;;;;;5093596;28;20202;-53
2022/09/09 03:42:07;;;;;;;31.25;15.23;;;;;;;;;;5105902;28;20205;-50
2022/09/09 03:44:33;;;;;;;26.48;14.07;;;;;;;;;;5110477;28;20631;-48
2022/09/09 03:47:00;;;;;;;24.90;14.75;;;;;;;;;;5094127;28;20528;-49
2022/09/09 03:49:30;;;;;;;23.15;13.00;;;;;;;;;;5110531;28;20646;-48
2022/09/09 03:51:58;;;;;;;26.02;14.00;;;;;;;;;;5094317;28;20257;-49
2022/09/09 03:54:25;;;;;;;23.15;14.15;;;;;;;;;;5110346;28;20723;-49
2022/09/09 03:56:53;;;;;;;23.25;13.63;;;;;;;;;;5094589;28;20225;-53
2022/09/09 03:59:22;;;;;;;24.40;13.93;;;;;;;;;;5102373;28;20596;-55
2022/09/09 04:01:50;;;;;;;21.98;13.43;;;;;;;;;;5113009;28;20221;-55
2022/09/09 04:04:17;;;;;;;22.30;14.20;;;;;;;;;;5111923;28;20229;-54
2022/09/09 04:06:44;;;;;;;22.15;13.68;;;;;;;;;;5093540;28;20238;-49
2022/09/09 04:09:11;;;;;;;24.98;13.65;;;;;;;;;;5109025;28;20230;-48
2022/09/09 04:11:38;;;;;;;25.35;13.55;;;;;;;;;;5102911;28;20283;-48
2022/09/09 04:14:05;;;;;;;23.77;13.75;;;;;;;;;;5096893;28;20222;-55
2022/09/09 04:16:35;;;;;;;24.45;13.73;;;;;;;;;;5096290;28;20254;-54
2022/09/09 04:19:04;;;;;;;28.30;14.52;;;;;;;;;;5097164;28;20675;-51
2022/09/09 04:21:31;;;;;;;19.75;12.45;;;;;;;;;;5096492;28;20222;-48
2022/09/09 04:24:00;;;;;;;26.25;12.88;;;;;;;;;;5096308;28;20309;-50
2022/09/09 04:26:27;;;;;;;24.23;14.10;;;;;;;;;;5096386;28;20366;-50
2022/09/09 04:28:55;;;;;;;25.75;13.93;;;;;;;;;;5096809;28;20698;-50
2022/09/09 04:31:23;;;;;;;25.05;14.38;;;;;;;;;;5096061;28;20716;-49
2022/09/09 04:33:53;;;;;;;21.92;12.93;;;;;;;;;;5096477;28;20241;-48
2022/09/09 04:36:21;;;;;;;27.52;13.88;;;;;;;;;;5095934;28;20292;-49
2022/09/09 04:38:50;;;;;;;22.75;13.85;;;;;;;;;;5093044;28;20222;-50
2022/09/09 04:41:17;;;;;;;22.55;14.23;;;;;;;;;;5093056;28;20542;-54
2022/09/09 04:43:48;;;;;;;20.17;13.77;;;;;;;;;;5095914;28;20249;-52
2022/09/09 04:46:17;;;;;;;27.80;14.23;;;;;;;;;;5095423;28;20219;-55
2022/09/09 04:48:45;;;;;;;21.48;13.60;;;;;;;;;;5095908;28;20744;-50
2022/09/09 04:51:14;;;;;;;22.52;13.25;;;;;;;;;;5096153;28;20590;-56
2022/09/09 04:53:42;;;;;;;21.73;13.02;;;;;;;;;;5094788;28;20249;-56
2022/09/09 04:56:13;;;;;;;25.63;14.13;;;;;;;;;;5094275;28;20287;-53
2022/09/09 04:58:45;;;;;;;21.58;12.93;;;;;;;;;;5094441;28;20303;-51
2022/09/09 05:01:21;;;;;;;20.67;13.15;;;;;;;;;;5094449;28;20689;-52
2022/09/09 05:03:51;;;;;;;22.95;13.32;;;;;;;;;;5095868;28;20257;-55
2022/09/09 05:06:22;;;;;;;21.00;12.07;;;;;;;;;;5095631;28;20238;-56
2022/09/09 05:08:53;;;;;;;19.55;13.02;;;;;;;;;;5095765;28;20242;-52
2022/09/09 05:11:26;;;;;;;25.33;13.27;;;;;;;;;;5094659;28;20249;-52
2022/09/09 05:13:58;;;;;;;21.85;13.07;;;;;;;;;;5095213;28;20678;-55
2022/09/09 05:16:28;;;;;;;21.73;12.65;;;;;;;;;;5093815;28;20238;-52
2022/09/09 05:18:55;;;;;;;23.88;13.65;;;;;;;;;;5095675;28;20272;-54
2022/09/09 05:21:26;;;;;;;20.75;13.52;;;;;;;;;;5078608;28;20222;-56
2022/09/09 05:23:53;;;;;;;21.88;13.40;;;;;;;;;;5095361;28;20187;-50
2022/09/09 05:26:21;;;;;;;21.88;13.55;;;;;;;;;;5096987;28;20206;-52
2022/09/09 05:28:51;;;;;;;23.40;13.85;;;;;;;;;;5096434;28;20199;-53
2022/09/09 05:31:19;;;;;;;23.40;13.25;;;;;;;;;;5097143;28;20219;-54
2022/09/09 05:33:49;;;;;;;26.02;14.00;;;;;;;;;;5095812;28;20280;-52
2022/09/09 05:36:19;;;;;;;24.65;13.80;;;;;;;;;;5095932;28;20260;-48
2022/09/09 05:38:49;;;;;;;24.05;13.35;;;;;;;;;;5096143;28;20207;-57
2022/09/09 05:41:17;;;;;;;27.05;13.55;;;;;;;;;;5094727;28;20588;-48
2022/09/09 05:43:46;;;;;;;24.98;13.65;;;;;;;;;;5095671;28;20226;-51
2022/09/09 05:46:15;;;;;;;24.48;13.45;;;;;;;;;;5095215;28;20260;-48
2022/09/09 05:48:46;;;;;;;26.42;14.38;;;;;;;;;;5095381;28;20227;-49
2022/09/09 05:51:15;;;;;;;23.33;13.75;;;;;;;;;;5095624;28;20209;-49
2022/09/09 05:53:43;;;;;;;22.90;14.23;;;;;;;;;;5095360;28;20234;-49
2022/09/09 05:56:19;;;;;;;23.10;14.35;;;;;;;;;;5095750;28;20225;-48
2022/09/09 05:58:49;;;;;;;22.83;13.85;;;;;;;;;;5095290;28;20214;-48
2022/09/09 06:01:26;;;;;;;22.45;13.30;;;;;;;;;;5095709;28;20206;-51
2022/09/09 06:03:54;;;;;;;21.70;13.40;;;;;;;;;;5095007;28;20186;-52
2022/09/09 06:06:28;;;;;;;25.35;13.55;;;;;;;;;;5095463;28;20198;-49
2022/09/09 06:08:57;;;;;;;24.40;13.45;;;;;;;;;;5095549;28;20209;-49
2022/09/09 06:11:30;;;;;;;21.50;13.55;;;;;;;;;;5094545;28;20210;-53
2022/09/09 06:13:59;;;;;;;22.27;13.50;;;;;;;;;;5093910;28;20283;-56
2022/09/09 06:16:29;;;;;;;27.40;14.48;;;;;;;;;;5094795;28;20202;-49
2022/09/09 06:18:57;;;;;;;23.90;14.05;;;;;;;;;;5095271;28;20217;-48
2022/09/09 06:21:30;;;;;;;22.50;13.70;;;;;;;;;;5093665;28;20596;-49
2022/09/09 06:24:00;;;;;;;23.88;13.85;;;;;;;;;;5094370;28;20909;-54
2022/09/09 06:26:37;;;;;;;24.98;13.07;;;;;;;;;;5094105;28;20202;-48
2022/09/09 06:29:04;;;;;;;24.45;13.68;;;;;;;;;;5094113;28;20212;-49
2022/09/09 06:31:33;;;;;;;22.80;14.30;;;;;;;;;;5094717;28;20203;-53
2022/09/09 06:34:08;;;;;;;20.38;13.45;;;;;;;;;;5094932;28;20210;-48
2022/09/09 06:36:39;;;;;;;21.13;13.10;;;;;;;;;;5094710;28;20676;-53
2022/09/09 06:39:08;;;;;;;22.88;13.65;;;;;;;;;;5094569;28;20198;-48
2022/09/09 06:41:42;;;;;;;22.20;12.70;;;;;;;;;;5094853;28;20199;-54
2022/09/09 06:44:26;;;;;;;21.17;12.52;;;;;;;;;;5094283;28;20202;-53
2022/09/09 06:46:58;;;;;;;22.55;13.45;;;;;;;;;;5093964;28;20532;-51
2022/09/09 06:49:25;;;;;;;20.67;12.43;;;;;;;;;;5093896;28;20231;-49
2022/09/09 06:51:52;;;;;;;19.48;12.57;;;;;;;;;;5093764;28;20198;-48
2022/09/09 06:54:22;;;;;;;20.98;12.52;;;;;;;;;;5094233;28;20611;-48
2022/09/09 06:56:50;;;;;;;22.20;13.68;;;;;;;;;;5093460;28;20194;-53
2022/09/09 06:59:21;;;;;;;20.27;12.15;;;;;;;;;;5093779;28;20196;-49
2022/09/09 07:01:54;;;;;;;17.17;11.55;;;;;;;;;;5093805;28;20191;-49
2022/09/09 07:04:23;;;;;;;19.17;11.45;;;;;;;;;;5094336;28;20693;-49
2022/09/09 07:06:52;;;;;;;17.17;11.10;;;;;;;;;;5094204;28;20199;-51
2022/09/09 07:09:24;;;;;;;18.88;12.10;;;;;;;;;;5093877;28;20198;-51
2022/09/09 07:11:53;;;;;;;17.70;11.00;;;;;;;;;;5076126;28;20267;-51
2022/09/09 07:14:22;;;;;;;16.48;11.02;;;;;;;;;;5092901;28;20228;-50
2022/09/09 07:17:00;;;;;;;16.25;11.07;;;;;;;;;;5094142;28;20198;-55
2022/09/09 07:19:33;;;;;;;17.38;10.88;;;;;;;;;;5093739;28;20244;-48
2022/09/09 07:22:03;;;;;;;15.95;10.77;;;;;;;;;;5094144;28;20529;-49
2022/09/09 07:24:31;;;;;;;16.52;10.23;;;;;;;;;;5093864;28;20198;-48
2022/09/09 07:26:59;;;;;;;14.68;9.45;;;;;;;;;;5094161;28;20267;-54
2022/09/09 07:29:26;;;;;;;15.90;10.05;;;;;;;;;;5094244;28;20209;-49
2022/09/09 07:31:53;;;;;;;15.35;9.40;;;;;;;;;;5094191;28;20230;-52
2022/09/09 07:34:25;;;;;;;12.43;8.55;;;;;;;;;;5093144;28;20222;-50
2022/09/09 07:36:53;;;;;;;12.50;8.93;;;;;;;;;;5092063;28;20198;-49
2022/09/09 07:39:19;;;;;;;10.93;7.18;;;;;;;;;;5091957;28;20202;-52
2022/09/09 07:41:51;;;;;;;12.15;7.65;;;;;;;;;;5092261;28;20207;-53
2022/09/09 07:44:24;;;;;;;11.68;7.53;;;;;;;;;;5092343;28;20229;-52
2022/09/09 07:47:02;;;;;;;11.40;7.35;;;;;;;;;;5096421;28;20369;-48
2022/09/09 07:49:35;;;;;;;11.77;7.65;;;;;;;;;;5098120;28;20194;-49
2022/09/09 07:52:04;;;;;;;17.83;7.95;;;;;;;;;;5097703;28;20212;-48
2022/09/09 07:54:32;;;;;;;10.70;7.60;;;;;;;;;;5096907;28;20301;-49
2022/09/09 07:57:03;;;;;;;10.95;7.00;;;;;;;;;;5096461;28;20225;-49
2022/09/09 07:59:33;;;;;;;9.40;7.10;;;;;;;;;;5097401;28;20198;-50
2022/09/09 08:02:00;;;;;;;12.38;7.35;;;;;;;;;;5096791;28;20209;-50
2022/09/09 08:04:30;;;;;;;14.00;7.30;;;;;;;;;;5096953;28;20571;-51
2022/09/09 08:06:59;;;;;;;13.98;7.70;;;;;;;;;;5097243;28;20297;-50
2022/09/09 08:09:32;;;;;;;10.00;7.05;;;;;;;;;;5097871;28;20203;-55
2022/09/09 08:12:06;;;;;;;11.05;7.72;;;;;;;;;;5097666;28;20213;-48
2022/09/09 08:14:33;;;;;;;9.98;7.45;;;;;;;;;;5096608;28;20659;-51
2022/09/09 08:17:01;;;;;;;11.88;7.53;;;;;;;;;;5097262;28;20222;-49
2022/09/09 08:19:29;;;;;;;15.48;8.07;;;;;;;;;;5097631;28;20284;-52
2022/09/09 08:21:59;;;;;;;13.10;7.90;;;;;;;;;;5097478;28;20643;-51
2022/09/09 08:24:26;;;;;;;13.65;8.20;;;;;;;;;;5098455;28;20202;-48
2022/09/09 08:26:53;;;;;;;11.38;7.88;;;;;;;;;;5097390;28;20206;-48
2022/09/09 08:29:23;;;;;;;11.80;8.23;;;;;;;;;;5097100;28;20642;-51
2022/09/09 08:31:54;;;;;;;12.13;8.35;;;;;;;;;;5097821;28;20233;-49
2022/09/09 08:34:21;;;;;;;13.10;7.88;;;;;;;;;;5097222;28;20222;-50
2022/09/09 08:36:50;;;;;;;13.20;8.65;;;;;;;;;;5096355;28;20543;-52
2022/09/09 08:39:22;;;;;;;17.00;8.32;;;;;;;;;;5096687;28;20194;-51
2022/09/09 08:42:02;;;;;;;11.50;8.30;;;;;;;;;;5096363;28;20217;-53
2022/09/09 08:44:55;;;;;;;13.63;7.95;;;;;;;;;;5096468;28;20202;-51
2022/09/09 08:47:49;;;;;;;13.32;8.55;;;;;;;;;;5095509;28;20202;-49
2022/09/09 08:50:28;;;;;;;11.32;7.88;;;;;;;;;;5095481;28;20232;-49
2022/09/09 08:53:17;;;;;;;11.50;8.05;;;;;;;;;;5094942;28;20763;-49
2022/09/09 08:55:51;;;;;;;13.82;8.00;;;;;;;;;;5078618;28;20283;-49
2022/09/09 08:58:29;;;;;;;12.52;7.90;;;;;;;;;;5096233;28;20205;-51
2022/09/09 09:01:50;;;;;;;13.05;8.13;;;;;;;;;;5080973;28;20228;-53
2022/09/09 09:04:44;;;;;;;12.15;8.48;;;;;;;;;;5096659;28;20190;-49
2022/09/09 09:07:15;;;;;;;14.00;8.30;;;;;;;;;;5096448;28;20256;-52
2022/09/09 09:09:45;;;;;;;12.68;8.52;;;;;;;;;;5096462;28;20221;-50
2022/09/09 09:12:22;;;;;;;14.35;8.18;;;;;;;;;;5096727;28;20227;-49
2022/09/09 09:14:49;;;;;;;14.13;8.27;;;;;;;;;;5094929;28;20222;-53
2022/09/09 09:17:23;;;;;;;12.68;7.57;;;;;;;;;;5095304;28;20194;-52
2022/09/09 09:19:51;;;;;;;10.70;7.50;;;;;;;;;;5078968;28;20203;-52
2022/09/09 09:22:28;;;;;;;12.30;8.05;;;;;;;;;;5095723;28;20194;-49
2022/09/09 09:25:11;;;;;;;11.40;7.63;;;;;;;;;;5096171;28;20642;-49
2022/09/09 09:27:47;;;;;;;12.50;8.30;;;;;;;;;;5079680;28;20199;-53
2022/09/09 09:30:19;;;;;;;10.88;8.00;;;;;;;;;;5078929;28;20692;-50
2022/09/09 09:33:03;;;;;;;16.83;7.80;;;;;;;;;;5095913;28;20206;-51
2022/09/09 09:35:30;;;;;;;9.57;7.43;;;;;;;;;;5079274;28;20222;-53
2022/09/09 09:37:57;;;;;;;12.30;8.02;;;;;;;;;;5095549;28;20562;-49
2022/09/09 09:40:51;;;;;;;12.52;7.55;;;;;;;;;;5095528;28;20647;-48
2022/09/09 09:43:22;;;;;;;9.85;6.80;;;;;;;;;;5094521;28;20198;-49
2022/09/09 09:45:49;;;;;;;10.18;7.43;;;;;;;;;;5094746;28;20210;-49
2022/09/09 09:48:36;;;;;;;9.63;6.57;;;;;;;;;;5095278;28;20242;-51
2022/09/09 09:51:10;;;;;;;11.73;7.18;;;;;;;;;;5095564;28;20224;-49
2022/09/09 09:53:38;;;;;;;8.93;6.53;;;;;;;;;;5095834;28;20226;-48
2022/09/09 09:56:12;;;;;;;8.77;6.00;;;;;;;;;;5077373;28;20537;-48
2022/09/09 09:58:46;;;;;;;7.78;5.97;;;;;;;;;;5094740;28;20248;-56
2022/09/09 10:01:29;;;;;;;8.07;6.18;;;;;;;;;;5095476;28;20201;-54
2022/09/09 10:03:59;;;;;;;8.75;5.55;;;;;;;;;;5095850;28;20225;-48
2022/09/09 10:06:35;;;;;;;6.75;5.45;;;;;;;;;;5095598;28;20206;-48
2022/09/09 10:09:04;;;;;;;9.07;5.82;;;;;;;;;;5095858;28;20194;-49
2022/09/09 10:12:03;;;;;;;7.35;5.45;;;;;;;;;;5096196;28;20666;-48
2022/09/09 10:14:41;;;;;;;6.10;4.95;;;;;;;;;;5096135;28;20261;-54
2022/09/09 10:17:23;;;;;;;6.97;5.07;;;;;;;;;;5096219;28;20599;-48
2022/09/09 10:20:14;;;;;;;7.10;5.32;;;;;;;;;;5096042;28;20225;-53
2022/09/09 10:22:47;;;;;;;7.70;4.75;;;;;;;;;;5076048;28;20635;-50
2022/09/09 10:25:32;;;;;;;8.10;5.30;;;;;;;;;;5095483;28;20214;-48
2022/09/09 10:28:14;;;;;;;6.63;4.88;;;;;;;;;;5095412;28;20191;-48
2022/09/09 10:31:00;;;;;;;6.55;5.07;;;;;;;;;;5095428;28;20619;-51
2022/09/09 10:33:39;;;;;;;7.18;5.15;;;;;;;;;;5095800;28;20207;-49
2022/09/09 10:36:28;;;;;;;6.75;4.90;;;;;;;;;;5096028;28;20294;-47
2022/09/09 10:39:03;;;;;;;7.07;4.80;;;;;;;;;;5094515;28;20220;-55
2022/09/09 10:42:09;;;;;;;7.18;4.78;;;;;;;;;;5094763;28;20187;-52
2022/09/09 10:45:13;;;;;;;7.20;5.05;;;;;;;;;;5094823;28;20267;-48
2022/09/09 10:47:50;;;;;;;7.32;5.13;;;;;;;;;;5095753;28;20206;-54
2022/09/09 10:50:35;;;;;;;6.78;4.40;;;;;;;;;;5094534;28;20194;-49
2022/09/09 10:54:06;;;;;;;7.90;4.72;;;;;;;;;;5093891;28;20252;-48
2022/09/09 10:56:34;;;;;;;8.25;5.10;;;;;;;;;;5084096;28;20202;-49
2022/09/09 10:59:13;;;;;;;7.53;5.80;;;;;;;;;;5094315;28;20515;-49
2022/09/09 11:01:49;;;;;;;7.85;4.90;;;;;;;;;;5095703;28;20221;-50
2022/09/09 11:04:21;;;;;;;7.18;5.35;;;;;;;;;;5094424;28;20518;-50
2022/09/09 11:06:52;;;;;;;7.05;5.13;;;;;;;;;;5094323;28;20213;-48
2022/09/09 11:09:25;;;;;;;7.70;5.13;;;;;;;;;;5093235;28;20406;-52
2022/09/09 11:11:57;;;;;;;7.35;5.03;;;;;;;;;;5094328;28;20209;-49
2022/09/09 11:14:31;;;;;;;6.38;4.70;;;;;;;;;;5094702;28;20664;-49
2022/09/09 11:17:18;;;;;;;5.72;4.80;;;;;;;;;;5093716;28;20534;-48
2022/09/09 11:19:45;;;;;;;6.18;4.35;;;;;;;;;;5093871;28;20290;-47
2022/09/09 11:22:30;;;;;;;7.25;4.70;;;;;;;;;;5094044;28;20268;-48
2022/09/09 11:25:12;;;;;;;8.02;4.57;;;;;;;;;;5095032;28;20229;-48
2022/09/09 11:27:49;;;;;;;6.57;4.50;;;;;;;;;;5094665;28;20202;-48
2022/09/09 11:30:19;;;;;;;7.95;5.03;;;;;;;;;;5094906;28;20186;-48
2022/09/09 11:33:26;;;;;;;5.35;4.75;;;;;;;;;;5094791;28;20582;-48
2022/09/09 11:36:10;;;;;;;9.30;5.30;;;;;;;;;;5094567;28;20535;-48
2022/09/09 11:38:47;;;;;;;7.32;5.20;;;;;;;;;;5093121;28;20218;-56
2022/09/09 11:41:15;;;;;;;7.53;4.90;;;;;;;;;;5103635;28;20198;-49
2022/09/09 11:43:51;;;;;;;6.78;4.65;;;;;;;;;;5108589;28;20567;-51
2022/09/09 11:46:22;;;;;;;8.50;5.40;;;;;;;;;;5111837;28;20182;-55
2022/09/09 11:49:00;;;;;;;6.93;5.18;;;;;;;;;;5110842;28;20226;-58
2022/09/09 11:51:29;;;;;;;5.63;4.72;;;;;;;;;;5112524;28;20239;-57
2022/09/09 11:54:01;;;;;;;6.13;4.97;;;;;;;;;;5113211;28;20210;-56
2022/09/09 11:56:32;;;;;;;6.63;5.00;;;;;;;;;;5112397;28;20186;-58
2022/09/09 11:59:05;;;;;;;7.68;5.88;;;;;;;;;;5108874;28;20210;-57
2022/09/09 12:01:32;;;;;;;6.50;4.68;;;;;;;;;;5111968;28;20190;-59
2022/09/09 12:04:11;;;;;;;7.22;4.95;;;;;;;;;;5104849;28;20222;-58
2022/09/09 12:07:02;;;;;;;9.70;5.32;;;;;;;;;;5103957;28;20225;-58
2022/09/09 12:09:32;;;;;;;7.88;4.72;;;;;;;;;;5109243;28;20274;-58
2022/09/09 12:12:30;;;;;;;8.20;5.05;;;;;;;;;;5110732;28;20449;-58
2022/09/09 12:15:02;;;;;;;7.57;4.70;;;;;;;;;;5110738;28;20230;-58
2022/09/09 12:17:31;;;;;;;10.85;4.85;;;;;;;;;;5111682;27;20655;-58
2022/09/09 12:20:17;;;;;;;8.50;5.03;;;;;;;;;;5111923;28;20232;-58
2022/09/09 12:22:59;;;;;;;6.75;4.40;;;;;;;;;;5111556;28;20221;-58
2022/09/09 12:25:29;;;;;;;10.02;5.15;;;;;;;;;;5110510;28;20256;-58
2022/09/09 12:28:11;;;;;;;7.95;5.38;;;;;;;;;;5103606;28;20214;-58
2022/09/09 12:31:23;;;;;;;9.73;5.03;;;;;;;;;;5111523;28;20222;-58
2022/09/09 12:33:52;;;;;;;6.82;4.40;;;;;;;;;;5110924;28;20282;-58
2022/09/09 12:36:28;;;;;;;7.03;4.28;;;;;;;;;;5114704;28;20233;-58
2022/09/09 12:38:59;;;;;;;6.10;4.13;;;;;;;;;;5112473;27;20239;-58
2022/09/09 12:41:28;;;;;;;8.32;4.80;;;;;;;;;;5109487;28;20663;-58
2022/09/09 12:44:07;;;;;;;6.75;4.53;;;;;;;;;;5114586;28;20221;-59
2022/09/09 12:46:36;;;;;;;5.07;4.18;;;;;;;;;;5115274;28;20217;-59
2022/09/09 12:49:04;;;;;;;6.55;4.00;;;;;;;;;;5127520;27;20222;-58
2022/09/09 12:51:32;;;;;;;5.78;4.10;;;;;;;;;;5113741;28;20221;-58
2022/09/09 12:53:59;;;;;;;6.43;4.25;;;;;;;;;;5114120;28;20309;-58
2022/09/09 12:56:35;;;;;;;4.95;4.13;;;;;;;;;;5114958;28;20263;-58
2022/09/09 12:59:02;;;;;;;5.95;3.53;;;;;;;;;;5114388;27;20308;-58
2022/09/09 13:01:32;;;;;;;6.60;3.78;;;;;;;;;;5113795;28;20214;-58
2022/09/09 13:04:00;;;;;;;6.38;3.80;;;;;;;;;;5114038;28;20218;-58
2022/09/09 13:06:29;;;;;;;10.10;6.00;;;;;;;;;;5115186;28;20221;-59
2022/09/09 13:08:59;;;;;;;26.00;19.73;;;;;;;;;;5115286;27;20229;-58
2022/09/09 13:11:30;;;;;;;25.67;16.75;;;;;;;;;;5115399;28;20214;-58
2022/09/09 13:13:58;;;;;;;35.92;22.55;;;;;;;;;;5114045;28;20254;-58
2022/09/09 13:16:33;;;;;;;24.33;19.40;;;;;;;;;;5095587;28;20748;-58
2022/09/09 13:19:18;;;;;;;9.38;8.48;;;;;;;;;;5112754;28;20238;-59
2022/09/09 13:21:45;;;;;;;9.15;7.63;;;;;;;;;;5115796;28;20308;-58
2022/09/09 13:24:29;;;;;;;8.95;8.15;;;;;;;;;;5115042;28;20237;-58
2022/09/09 13:26:58;;;;;;;9.43;7.22;;;;;;;;;;5112863;28;20412;-59
2022/09/09 13:29:25;;;;;;;5.82;5.13;;;;;;;;;;5116036;28;20232;-58
2022/09/09 13:31:52;;;;;;;5.07;4.50;;;;;;;;;;5114763;28;20261;-58
2022/09/09 13:34:29;;;;;;;12.15;10.15;;;;;;;;;;5114051;28;20237;-58
2022/09/09 13:37:02;;;;;;;7.47;6.72;;;;;;;;;;5115724;28;20226;-57
2022/09/09 13:39:29;;;;;;;8.50;7.53;;;;;;;;;;5116261;27;20260;-57
2022/09/09 13:41:57;;;;;;;6.43;5.47;;;;;;;;;;5116121;28;20559;-58
2022/09/09 13:44:25;;;;;;;26.83;14.20;;;;;;;;;;5114518;27;20225;-58
2022/09/09 13:47:26;;;;;;;16.50;9.18;;;;;;;;;;5114942;28;20316;-58
2022/09/09 13:49:53;;;;;;;24.80;13.38;;;;;;;;;;5093880;28;20299;-58
2022/09/09 13:52:22;;;;;;;39.28;19.25;;;;;;;;;;5111165;28;20572;-58
2022/09/09 13:54:50;;;;;;;59.58;29.92;;;;;;;;;;5112851;28;20243;-58
2022/09/09 13:57:24;;;;;;;73.82;38.30;;;;;;;;;;5112608;28;20543;-58
2022/09/09 13:59:54;;;;;;;62.22;32.63;;;;;;;;;;5115351;28;20320;-57
2022/09/09 14:02:38;;;;;;;65.68;28.95;;;;;;;;;;5114709;28;20233;-58
2022/09/09 14:05:06;;;;;;;74.32;31.15;;;;;;;;;;5115119;27;20221;-57
2022/09/09 14:07:33;;;;;;;82.05;30.63;;;;;;;;;;5114786;28;20210;-58
2022/09/09 14:10:00;;;;;;;29.55;14.40;;;;;;;;;;5115318;27;20287;-56
2022/09/09 14:12:27;;;;;;;67.45;28.23;;;;;;;;;;5113486;28;20322;-58
2022/09/09 14:14:54;;;;;;;44.80;20.92;;;;;;;;;;5113075;27;20225;-53
2022/09/09 14:17:22;;;;;;;65.82;29.58;;;;;;;;;;5107954;28;20267;-58
2022/09/09 14:19:48;;;;;;;40.22;19.92;;;;;;;;;;5093518;28;20303;-58
2022/09/09 14:22:15;;;;;;;42.92;20.55;;;;;;;;;;5093293;28;20218;-58
2022/09/09 14:24:42;;;;;;;32.80;16.90;;;;;;;;;;5092772;28;20238;-57
2022/09/09 14:27:09;;;;;;;58.40;27.05;;;;;;;;;;5094220;28;20222;-57
2022/09/09 14:29:36;;;;;;;64.18;27.08;;;;;;;;;;5095278;28;20231;-56
2022/09/09 14:32:04;;;;;;;79.75;31.35;;;;;;;;;;5093997;28;20226;-59
2022/09/09 14:34:38;;;;;;;92.80;35.95;;;;;;;;;;5094636;28;20223;-55
2022/09/09 14:37:06;;;;;;;116.72;52.35;;;;;;;;;;5094486;28;20226;-55
2022/09/09 14:39:33;;;;;;;108.03;46.55;;;;;;;;;;5093919;28;20302;-57
2022/09/09 14:42:00;;;;;;;87.57;35.58;;;;;;;;;;5093117;28;20284;-55
2022/09/09 14:44:28;;;;;;;54.80;24.75;;;;;;;;;;5094877;28;20238;-54
2022/09/09 14:46:55;;;;;;;58.88;28.30;;;;;;;;;;5094112;28;20227;-57
2022/09/09 14:49:21;;;;;;;34.35;18.13;;;;;;;;;;5113724;28;20321;-57
2022/09/09 14:51:48;;;;;;;45.42;23.52;;;;;;;;;;5106726;28;20283;-58
2022/09/09 14:54:16;;;;;;;43.83;24.17;;;;;;;;;;5096695;28;20651;-58
2022/09/09 14:56:45;;;;;;;19.55;10.43;;;;;;;;;;5093782;28;20303;-58
2022/09/09 14:59:12;;;;;;;44.75;23.40;;;;;;;;;;5094190;28;20222;-58
2022/09/09 15:01:39;;;;;;;17.13;12.00;;;;;;;;;;5092999;28;20230;-58
2022/09/09 15:04:07;;;;;;;18.70;12.15;;;;;;;;;;5093988;28;20218;-58
2022/09/09 15:06:38;;;;;;;25.33;16.48;;;;;;;;;;5093005;28;20226;-58
2022/09/09 15:09:05;;;;;;;15.70;10.85;;;;;;;;;;5094191;28;20633;-59